sensor_id;sensor_type;location;lat;lon;timestamp;P1;durP1;ratioP1;P2;durP2;ratioP2
52033;SDS011;38045;52.988;6.536;2023-07-09T00:01:54;9.07;;;6.85;;
52033;SDS011;38045;52.988;6.536;2023-07-09T00:04:25;9.65;;;6.93;;
52033;SDS011;38045;52.988;6.536;2023-07-09T00:06:55;9.32;;;8.35;;
52033;SDS011;38045;52.988;6.536;2023-07-09T00:09:28;10.32;;;8.20;;
52033;SDS011;38045;52.988;6.536;2023-07-09T00:11:56;8.40;;;7.60;;
52033;SDS011;38045;52.988;6.536;2023-07-09T00:14:24;8.50;;;7.07;;
52033;SDS011;38045;52.988;6.536;2023-07-09T00:16:51;8.98;;;8.05;;
52033;SDS011;38045;52.988;6.536;2023-07-09T00:19:21;9.02;;;7.35;;
52033;SDS011;38045;52.988;6.536;2023-07-09T00:21:55;7.93;;;7.13;;
52033;SDS011;38045;52.988;6.536;2023-07-09T00:24:22;8.35;;;7.25;;
52033;SDS011;38045;52.988;6.536;2023-07-09T00:26:56;8.80;;;7.90;;
52033;SDS011;38045;52.988;6.536;2023-07-09T00:29:25;9.05;;;8.05;;
52033;SDS011;38045;52.988;6.536;2023-07-09T00:31:53;7.53;;;6.82;;
52033;SDS011;38045;52.988;6.536;2023-07-09T00:34:20;8.30;;;7.50;;
52033;SDS011;38045;52.988;6.536;2023-07-09T00:36:53;8.95;;;8.05;;
52033;SDS011;38045;52.988;6.536;2023-07-09T00:39:22;8.20;;;7.40;;
52033;SDS011;38045;52.988;6.536;2023-07-09T00:41:52;8.73;;;7.57;;
52033;SDS011;38045;52.988;6.536;2023-07-09T00:49:30;7.70;;;7.00;;
52033;SDS011;38045;52.988;6.536;2023-07-09T00:52:05;11.40;;;7.50;;
52033;SDS011;38045;52.988;6.536;2023-07-09T00:54:48;8.90;;;8.00;;
52033;SDS011;38045;52.988;6.536;2023-07-09T00:57:20;8.38;;;7.32;;
52033;SDS011;38045;52.988;6.536;2023-07-09T00:59:59;8.38;;;7.57;;
52033;SDS011;38045;52.988;6.536;2023-07-09T01:02:38;9.20;;;7.07;;
52033;SDS011;38045;52.988;6.536;2023-07-09T01:10:16;7.18;;;6.47;;
52033;SDS011;38045;52.988;6.536;2023-07-09T01:12:44;6.53;;;5.93;;
52033;SDS011;38045;52.988;6.536;2023-07-09T01:15:14;8.05;;;7.28;;
52033;SDS011;38045;52.988;6.536;2023-07-09T01:17:42;7.78;;;6.80;;
52033;SDS011;38045;52.988;6.536;2023-07-09T01:20:17;14.13;;;7.60;;
52033;SDS011;38045;52.988;6.536;2023-07-09T01:22:49;8.93;;;7.82;;
52033;SDS011;38045;52.988;6.536;2023-07-09T01:25:21;7.45;;;6.70;;
52033;SDS011;38045;52.988;6.536;2023-07-09T01:27:49;8.13;;;5.65;;
52033;SDS011;38045;52.988;6.536;2023-07-09T01:30:36;8.02;;;7.28;;
52033;SDS011;38045;52.988;6.536;2023-07-09T01:33:05;11.50;;;7.10;;
52033;SDS011;38045;52.988;6.536;2023-07-09T01:35:36;6.75;;;6.07;;
52033;SDS011;38045;52.988;6.536;2023-07-09T01:38:13;8.40;;;7.50;;
52033;SDS011;38045;52.988;6.536;2023-07-09T01:40:44;8.90;;;8.05;;
52033;SDS011;38045;52.988;6.536;2023-07-09T01:43:12;9.00;;;6.20;;
52033;SDS011;38045;52.988;6.536;2023-07-09T01:45:42;8.05;;;7.25;;
52033;SDS011;38045;52.988;6.536;2023-07-09T01:48:12;8.57;;;7.68;;
52033;SDS011;38045;52.988;6.536;2023-07-09T01:50:42;10.32;;;7.95;;
52033;SDS011;38045;52.988;6.536;2023-07-09T01:53:10;9.20;;;8.30;;
52033;SDS011;38045;52.988;6.536;2023-07-09T01:55:39;12.50;;;7.65;;
52033;SDS011;38045;52.988;6.536;2023-07-09T01:58:06;7.93;;;6.65;;
52033;SDS011;38045;52.988;6.536;2023-07-09T02:00:34;6.57;;;5.97;;
52033;SDS011;38045;52.988;6.536;2023-07-09T02:03:01;8.20;;;7.40;;
52033;SDS011;38045;52.988;6.536;2023-07-09T02:05:31;9.00;;;6.80;;
52033;SDS011;38045;52.988;6.536;2023-07-09T02:07:58;9.20;;;7.40;;
52033;SDS011;38045;52.988;6.536;2023-07-09T02:10:26;11.63;;;7.28;;
52033;SDS011;38045;52.988;6.536;2023-07-09T02:12:56;8.73;;;6.50;;
52033;SDS011;38045;52.988;6.536;2023-07-09T02:15:24;8.82;;;7.43;;
52033;SDS011;38045;52.988;6.536;2023-07-09T02:17:52;8.43;;;7.63;;
52033;SDS011;38045;52.988;6.536;2023-07-09T02:20:27;8.20;;;7.07;;
52033;SDS011;38045;52.988;6.536;2023-07-09T02:22:55;8.98;;;8.07;;
52033;SDS011;38045;52.988;6.536;2023-07-09T02:25:22;9.25;;;7.90;;
52033;SDS011;38045;52.988;6.536;2023-07-09T02:27:50;10.32;;;9.23;;
52033;SDS011;38045;52.988;6.536;2023-07-09T02:30:17;8.10;;;7.32;;
52033;SDS011;38045;52.988;6.536;2023-07-09T02:32:47;10.00;;;8.65;;
52033;SDS011;38045;52.988;6.536;2023-07-09T02:35:14;10.80;;;8.85;;
52033;SDS011;38045;52.988;6.536;2023-07-09T02:37:42;8.93;;;8.13;;
52033;SDS011;38045;52.988;6.536;2023-07-09T02:40:09;8.70;;;7.82;;
52033;SDS011;38045;52.988;6.536;2023-07-09T02:42:43;10.52;;;8.27;;
52033;SDS011;38045;52.988;6.536;2023-07-09T02:45:19;8.23;;;7.30;;
52033;SDS011;38045;52.988;6.536;2023-07-09T02:47:46;8.10;;;7.30;;
52033;SDS011;38045;52.988;6.536;2023-07-09T02:50:14;9.20;;;7.53;;
52033;SDS011;38045;52.988;6.536;2023-07-09T02:52:41;8.38;;;7.53;;
52033;SDS011;38045;52.988;6.536;2023-07-09T02:55:08;13.52;;;8.18;;
52033;SDS011;38045;52.988;6.536;2023-07-09T02:57:35;8.50;;;7.75;;
52033;SDS011;38045;52.988;6.536;2023-07-09T03:00:02;8.23;;;7.50;;
52033;SDS011;38045;52.988;6.536;2023-07-09T03:02:31;9.30;;;7.35;;
52033;SDS011;38045;52.988;6.536;2023-07-09T03:05:03;10.43;;;8.65;;
52033;SDS011;38045;52.988;6.536;2023-07-09T03:07:33;8.48;;;7.63;;
52033;SDS011;38045;52.988;6.536;2023-07-09T03:09:59;8.38;;;6.60;;
52033;SDS011;38045;52.988;6.536;2023-07-09T03:12:36;7.18;;;6.57;;
52033;SDS011;38045;52.988;6.536;2023-07-09T03:15:03;9.18;;;8.18;;
52033;SDS011;38045;52.988;6.536;2023-07-09T03:17:30;9.10;;;8.20;;
52033;SDS011;38045;52.988;6.536;2023-07-09T03:20:01;8.40;;;7.38;;
52033;SDS011;38045;52.988;6.536;2023-07-09T03:22:28;8.70;;;7.80;;
52033;SDS011;38045;52.988;6.536;2023-07-09T03:24:57;12.30;;;8.18;;
52033;SDS011;38045;52.988;6.536;2023-07-09T03:27:26;8.23;;;7.43;;
52033;SDS011;38045;52.988;6.536;2023-07-09T03:29:53;9.38;;;8.45;;
52033;SDS011;38045;52.988;6.536;2023-07-09T03:32:26;8.60;;;7.55;;
52033;SDS011;38045;52.988;6.536;2023-07-09T03:34:53;9.13;;;8.13;;
52033;SDS011;38045;52.988;6.536;2023-07-09T03:37:20;9.05;;;8.25;;
52033;SDS011;38045;52.988;6.536;2023-07-09T03:39:50;10.63;;;8.13;;
52033;SDS011;38045;52.988;6.536;2023-07-09T03:42:25;9.40;;;8.43;;
52033;SDS011;38045;52.988;6.536;2023-07-09T03:44:52;8.63;;;7.75;;
52033;SDS011;38045;52.988;6.536;2023-07-09T03:47:21;9.50;;;8.50;;
52033;SDS011;38045;52.988;6.536;2023-07-09T03:49:51;7.97;;;6.72;;
52033;SDS011;38045;52.988;6.536;2023-07-09T03:52:23;11.45;;;10.35;;
52033;SDS011;38045;52.988;6.536;2023-07-09T03:54:53;12.40;;;8.55;;
52033;SDS011;38045;52.988;6.536;2023-07-09T03:57:24;8.90;;;7.97;;
52033;SDS011;38045;52.988;6.536;2023-07-09T03:59:52;10.10;;;8.05;;
52033;SDS011;38045;52.988;6.536;2023-07-09T04:02:19;12.68;;;8.68;;
52033;SDS011;38045;52.988;6.536;2023-07-09T04:04:46;9.75;;;8.57;;
52033;SDS011;38045;52.988;6.536;2023-07-09T04:07:22;11.38;;;7.82;;
52033;SDS011;38045;52.988;6.536;2023-07-09T04:09:49;12.27;;;9.05;;
52033;SDS011;38045;52.988;6.536;2023-07-09T04:12:24;9.43;;;8.52;;
52033;SDS011;38045;52.988;6.536;2023-07-09T04:14:54;10.05;;;8.48;;
52033;SDS011;38045;52.988;6.536;2023-07-09T04:17:26;9.25;;;7.75;;
52033;SDS011;38045;52.988;6.536;2023-07-09T04:19:55;9.38;;;7.85;;
52033;SDS011;38045;52.988;6.536;2023-07-09T04:22:23;8.60;;;7.80;;
52033;SDS011;38045;52.988;6.536;2023-07-09T04:24:50;8.52;;;7.65;;
52033;SDS011;38045;52.988;6.536;2023-07-09T04:27:18;9.15;;;8.25;;
52033;SDS011;38045;52.988;6.536;2023-07-09T04:29:47;9.65;;;8.65;;
52033;SDS011;38045;52.988;6.536;2023-07-09T04:32:17;8.68;;;7.93;;
52033;SDS011;38045;52.988;6.536;2023-07-09T04:34:43;8.82;;;8.02;;
52033;SDS011;38045;52.988;6.536;2023-07-09T04:37:16;8.77;;;7.97;;
52033;SDS011;38045;52.988;6.536;2023-07-09T04:39:50;10.43;;;9.10;;
52033;SDS011;38045;52.988;6.536;2023-07-09T04:42:17;11.85;;;7.78;;
52033;SDS011;38045;52.988;6.536;2023-07-09T04:44:44;11.18;;;9.13;;
52033;SDS011;38045;52.988;6.536;2023-07-09T04:47:19;9.57;;;8.68;;
52033;SDS011;38045;52.988;6.536;2023-07-09T04:49:54;20.25;;;8.98;;
52033;SDS011;38045;52.988;6.536;2023-07-09T04:52:24;9.77;;;8.65;;
52033;SDS011;38045;52.988;6.536;2023-07-09T04:54:51;13.82;;;8.40;;
52033;SDS011;38045;52.988;6.536;2023-07-09T04:57:25;9.50;;;8.02;;
52033;SDS011;38045;52.988;6.536;2023-07-09T04:59:52;13.50;;;9.27;;
52033;SDS011;38045;52.988;6.536;2023-07-09T05:02:22;13.20;;;8.70;;
52033;SDS011;38045;52.988;6.536;2023-07-09T05:04:49;10.07;;;9.07;;
52033;SDS011;38045;52.988;6.536;2023-07-09T05:07:20;10.55;;;8.60;;
52033;SDS011;38045;52.988;6.536;2023-07-09T05:09:46;9.93;;;8.48;;
52033;SDS011;38045;52.988;6.536;2023-07-09T05:12:13;9.52;;;8.18;;
52033;SDS011;38045;52.988;6.536;2023-07-09T05:14:40;11.32;;;8.55;;
52033;SDS011;38045;52.988;6.536;2023-07-09T05:17:08;10.10;;;7.53;;
52033;SDS011;38045;52.988;6.536;2023-07-09T05:19:40;8.63;;;7.78;;
52033;SDS011;38045;52.988;6.536;2023-07-09T05:22:07;9.52;;;8.63;;
52033;SDS011;38045;52.988;6.536;2023-07-09T05:24:34;10.57;;;8.55;;
52033;SDS011;38045;52.988;6.536;2023-07-09T05:27:01;9.98;;;8.82;;
52033;SDS011;38045;52.988;6.536;2023-07-09T05:29:31;10.07;;;8.90;;
52033;SDS011;38045;52.988;6.536;2023-07-09T05:32:01;11.45;;;8.80;;
52033;SDS011;38045;52.988;6.536;2023-07-09T05:34:32;10.95;;;8.98;;
52033;SDS011;38045;52.988;6.536;2023-07-09T05:37:03;12.38;;;10.43;;
52033;SDS011;38045;52.988;6.536;2023-07-09T05:39:29;11.00;;;9.85;;
52033;SDS011;38045;52.988;6.536;2023-07-09T05:42:04;10.50;;;9.15;;
52033;SDS011;38045;52.988;6.536;2023-07-09T05:44:34;9.93;;;8.80;;
52033;SDS011;38045;52.988;6.536;2023-07-09T05:47:03;9.63;;;8.63;;
52033;SDS011;38045;52.988;6.536;2023-07-09T05:49:33;12.45;;;9.00;;
52033;SDS011;38045;52.988;6.536;2023-07-09T05:52:01;10.10;;;8.27;;
52033;SDS011;38045;52.988;6.536;2023-07-09T05:54:28;9.20;;;8.20;;
52033;SDS011;38045;52.988;6.536;2023-07-09T05:56:57;11.98;;;9.10;;
52033;SDS011;38045;52.988;6.536;2023-07-09T05:59:24;10.00;;;8.07;;
52033;SDS011;38045;52.988;6.536;2023-07-09T06:01:56;11.90;;;9.52;;
52033;SDS011;38045;52.988;6.536;2023-07-09T06:04:23;11.68;;;9.85;;
52033;SDS011;38045;52.988;6.536;2023-07-09T06:06:52;10.63;;;9.30;;
52033;SDS011;38045;52.988;6.536;2023-07-09T06:09:21;14.45;;;9.43;;
52033;SDS011;38045;52.988;6.536;2023-07-09T06:14:15;17.65;;;10.20;;
52033;SDS011;38045;52.988;6.536;2023-07-09T06:16:50;11.82;;;9.10;;
52033;SDS011;38045;52.988;6.536;2023-07-09T06:19:20;14.93;;;9.75;;
52033;SDS011;38045;52.988;6.536;2023-07-09T06:21:48;10.20;;;8.98;;
52033;SDS011;38045;52.988;6.536;2023-07-09T06:24:15;8.80;;;7.90;;
52033;SDS011;38045;52.988;6.536;2023-07-09T06:26:41;10.43;;;8.18;;
52033;SDS011;38045;52.988;6.536;2023-07-09T06:29:08;11.55;;;10.38;;
52033;SDS011;38045;52.988;6.536;2023-07-09T06:31:40;10.90;;;9.63;;
52033;SDS011;38045;52.988;6.536;2023-07-09T06:34:11;12.48;;;10.77;;
52033;SDS011;38045;52.988;6.536;2023-07-09T06:36:37;11.32;;;9.40;;
52033;SDS011;38045;52.988;6.536;2023-07-09T06:39:04;12.63;;;9.00;;
52033;SDS011;38045;52.988;6.536;2023-07-09T06:41:31;15.35;;;11.75;;
52033;SDS011;38045;52.988;6.536;2023-07-09T06:44:07;14.27;;;10.85;;
52033;SDS011;38045;52.988;6.536;2023-07-09T06:46:35;14.98;;;10.93;;
52033;SDS011;38045;52.988;6.536;2023-07-09T06:49:02;13.30;;;10.57;;
52033;SDS011;38045;52.988;6.536;2023-07-09T06:51:38;31.52;;;11.65;;
52033;SDS011;38045;52.988;6.536;2023-07-09T06:54:05;12.52;;;10.73;;
52033;SDS011;38045;52.988;6.536;2023-07-09T06:56:36;16.25;;;10.95;;
52033;SDS011;38045;52.988;6.536;2023-07-09T06:59:03;13.15;;;11.75;;
52033;SDS011;38045;52.988;6.536;2023-07-09T07:01:30;14.52;;;12.23;;
52033;SDS011;38045;52.988;6.536;2023-07-09T07:03:57;12.48;;;10.75;;
52033;SDS011;38045;52.988;6.536;2023-07-09T07:06:23;14.38;;;12.88;;
52033;SDS011;38045;52.988;6.536;2023-07-09T07:08:50;11.60;;;10.38;;
52033;SDS011;38045;52.988;6.536;2023-07-09T07:11:17;11.85;;;10.65;;
52033;SDS011;38045;52.988;6.536;2023-07-09T07:13:44;12.10;;;10.40;;
52033;SDS011;38045;52.988;6.536;2023-07-09T07:16:12;15.48;;;10.68;;
52033;SDS011;38045;52.988;6.536;2023-07-09T07:18:41;15.57;;;12.25;;
52033;SDS011;38045;52.988;6.536;2023-07-09T07:21:08;12.95;;;11.55;;
52033;SDS011;38045;52.988;6.536;2023-07-09T07:23:35;14.02;;;11.40;;
52033;SDS011;38045;52.988;6.536;2023-07-09T07:26:05;12.13;;;10.70;;
52033;SDS011;38045;52.988;6.536;2023-07-09T07:28:33;13.25;;;11.43;;
52033;SDS011;38045;52.988;6.536;2023-07-09T07:31:02;16.10;;;11.55;;
52033;SDS011;38045;52.988;6.536;2023-07-09T07:33:30;12.13;;;10.25;;
52033;SDS011;38045;52.988;6.536;2023-07-09T07:35:57;14.88;;;11.65;;
52033;SDS011;38045;52.988;6.536;2023-07-09T07:38:24;12.77;;;11.55;;
52033;SDS011;38045;52.988;6.536;2023-07-09T07:40:51;11.48;;;9.73;;
52033;SDS011;38045;52.988;6.536;2023-07-09T07:43:22;10.50;;;9.50;;
52033;SDS011;38045;52.988;6.536;2023-07-09T07:45:48;10.68;;;9.57;;
52033;SDS011;38045;52.988;6.536;2023-07-09T07:48:18;12.75;;;10.27;;
52033;SDS011;38045;52.988;6.536;2023-07-09T07:50:45;11.95;;;9.82;;
52033;SDS011;38045;52.988;6.536;2023-07-09T07:53:13;11.45;;;9.95;;
52033;SDS011;38045;52.988;6.536;2023-07-09T07:55:40;10.32;;;9.02;;
52033;SDS011;38045;52.988;6.536;2023-07-09T07:58:11;11.40;;;9.73;;
52033;SDS011;38045;52.988;6.536;2023-07-09T08:00:39;14.18;;;10.45;;
52033;SDS011;38045;52.988;6.536;2023-07-09T08:03:10;11.68;;;8.05;;
52033;SDS011;38045;52.988;6.536;2023-07-09T08:05:36;17.35;;;10.43;;
52033;SDS011;38045;52.988;6.536;2023-07-09T08:08:04;10.40;;;8.35;;
52033;SDS011;38045;52.988;6.536;2023-07-09T08:10:34;10.43;;;8.82;;
52033;SDS011;38045;52.988;6.536;2023-07-09T08:13:04;14.05;;;8.32;;
52033;SDS011;38045;52.988;6.536;2023-07-09T08:15:31;9.20;;;8.13;;
52033;SDS011;38045;52.988;6.536;2023-07-09T08:18:02;13.00;;;7.80;;
52033;SDS011;38045;52.988;6.536;2023-07-09T08:20:29;10.52;;;8.23;;
52033;SDS011;38045;52.988;6.536;2023-07-09T08:23:02;12.10;;;9.18;;
52033;SDS011;38045;52.988;6.536;2023-07-09T08:25:28;10.52;;;6.45;;
52033;SDS011;38045;52.988;6.536;2023-07-09T08:27:55;14.75;;;8.30;;
52033;SDS011;38045;52.988;6.536;2023-07-09T08:30:22;8.85;;;7.60;;
52033;SDS011;38045;52.988;6.536;2023-07-09T08:32:49;10.55;;;8.20;;
52033;SDS011;38045;52.988;6.536;2023-07-09T08:35:18;10.30;;;7.50;;
52033;SDS011;38045;52.988;6.536;2023-07-09T08:37:48;9.40;;;7.80;;
52033;SDS011;38045;52.988;6.536;2023-07-09T08:40:16;10.52;;;8.32;;
52033;SDS011;38045;52.988;6.536;2023-07-09T08:42:44;10.00;;;8.55;;
52033;SDS011;38045;52.988;6.536;2023-07-09T08:45:34;10.95;;;8.35;;
52033;SDS011;38045;52.988;6.536;2023-07-09T08:48:32;13.48;;;9.68;;
52033;SDS011;38045;52.988;6.536;2023-07-09T08:51:08;11.48;;;8.93;;
52033;SDS011;38045;52.988;6.536;2023-07-09T08:53:48;11.63;;;9.20;;
52033;SDS011;38045;52.988;6.536;2023-07-09T08:56:21;18.00;;;9.63;;
52033;SDS011;38045;52.988;6.536;2023-07-09T08:58:51;11.05;;;7.40;;
52033;SDS011;38045;52.988;6.536;2023-07-09T09:01:24;12.45;;;8.60;;
52033;SDS011;38045;52.988;6.536;2023-07-09T09:04:00;15.13;;;7.97;;
52033;SDS011;38045;52.988;6.536;2023-07-09T09:06:51;10.90;;;9.07;;
52033;SDS011;38045;52.988;6.536;2023-07-09T09:09:42;9.98;;;7.78;;
52033;SDS011;38045;52.988;6.536;2023-07-09T09:12:20;12.03;;;8.30;;
52033;SDS011;38045;52.988;6.536;2023-07-09T09:14:56;11.75;;;8.63;;
52033;SDS011;38045;52.988;6.536;2023-07-09T09:17:26;11.32;;;9.88;;
52033;SDS011;38045;52.988;6.536;2023-07-09T09:20:03;9.38;;;7.93;;
52033;SDS011;38045;52.988;6.536;2023-07-09T09:22:43;10.45;;;8.68;;
52033;SDS011;38045;52.988;6.536;2023-07-09T09:25:31;12.70;;;10.20;;
52033;SDS011;38045;52.988;6.536;2023-07-09T09:28:05;11.07;;;9.10;;
52033;SDS011;38045;52.988;6.536;2023-07-09T09:30:39;15.40;;;9.65;;
52033;SDS011;38045;52.988;6.536;2023-07-09T09:33:09;10.05;;;7.82;;
52033;SDS011;38045;52.988;6.536;2023-07-09T09:35:41;10.07;;;9.20;;
52033;SDS011;38045;52.988;6.536;2023-07-09T09:38:20;10.15;;;8.95;;
52033;SDS011;38045;52.988;6.536;2023-07-09T09:40:58;11.68;;;8.75;;
52033;SDS011;38045;52.988;6.536;2023-07-09T09:43:31;12.88;;;7.97;;
52033;SDS011;38045;52.988;6.536;2023-07-09T09:46:05;17.35;;;9.10;;
52033;SDS011;38045;52.988;6.536;2023-07-09T09:48:32;11.73;;;7.90;;
52033;SDS011;38045;52.988;6.536;2023-07-09T09:51:09;11.20;;;9.38;;
52033;SDS011;38045;52.988;6.536;2023-07-09T09:53:40;10.27;;;8.50;;
52033;SDS011;38045;52.988;6.536;2023-07-09T09:56:20;9.80;;;8.70;;
52033;SDS011;38045;52.988;6.536;2023-07-09T09:58:55;9.30;;;8.38;;
52033;SDS011;38045;52.988;6.536;2023-07-09T10:01:29;9.63;;;7.28;;
52033;SDS011;38045;52.988;6.536;2023-07-09T10:04:01;9.45;;;7.82;;
52033;SDS011;38045;52.988;6.536;2023-07-09T10:09:21;14.27;;;7.80;;
52033;SDS011;38045;52.988;6.536;2023-07-09T10:12:32;10.25;;;9.07;;
52033;SDS011;38045;52.988;6.536;2023-07-09T10:20:45;12.63;;;9.68;;
52033;SDS011;38045;52.988;6.536;2023-07-09T10:23:27;25.67;;;8.85;;
52033;SDS011;38045;52.988;6.536;2023-07-09T10:29:04;17.90;;;8.98;;
52033;SDS011;38045;52.988;6.536;2023-07-09T10:31:49;11.30;;;9.55;;
52033;SDS011;38045;52.988;6.536;2023-07-09T10:34:34;9.48;;;8.48;;
52033;SDS011;38045;52.988;6.536;2023-07-09T10:37:33;10.55;;;8.52;;
52033;SDS011;38045;52.988;6.536;2023-07-09T10:40:36;8.80;;;7.90;;
52033;SDS011;38045;52.988;6.536;2023-07-09T10:43:10;10.43;;;9.43;;
52033;SDS011;38045;52.988;6.536;2023-07-09T10:45:47;12.85;;;8.18;;
52033;SDS011;38045;52.988;6.536;2023-07-09T10:48:38;9.50;;;7.47;;
52033;SDS011;38045;52.988;6.536;2023-07-09T10:51:13;10.50;;;6.72;;
52033;SDS011;38045;52.988;6.536;2023-07-09T10:53:58;9.20;;;8.25;;
52033;SDS011;38045;52.988;6.536;2023-07-09T10:56:41;8.10;;;7.40;;
52033;SDS011;38045;52.988;6.536;2023-07-09T11:04:54;8.88;;;7.43;;
52033;SDS011;38045;52.988;6.536;2023-07-09T11:07:26;9.20;;;7.32;;
52033;SDS011;38045;52.988;6.536;2023-07-09T11:12:44;8.93;;;6.60;;
52033;SDS011;38045;52.988;6.536;2023-07-09T11:15:13;7.60;;;6.85;;
52033;SDS011;38045;52.988;6.536;2023-07-09T11:17:45;9.18;;;7.45;;
52033;SDS011;38045;52.988;6.536;2023-07-09T11:20:32;7.38;;;6.60;;
52033;SDS011;38045;52.988;6.536;2023-07-09T11:23:05;10.48;;;7.82;;
52033;SDS011;38045;52.988;6.536;2023-07-09T11:25:43;7.53;;;6.82;;
52033;SDS011;38045;52.988;6.536;2023-07-09T11:28:12;10.70;;;7.00;;
52033;SDS011;38045;52.988;6.536;2023-07-09T11:30:49;8.07;;;7.28;;
52033;SDS011;38045;52.988;6.536;2023-07-09T11:33:27;8.00;;;6.75;;
52033;SDS011;38045;52.988;6.536;2023-07-09T11:36:10;8.55;;;6.78;;
52033;SDS011;38045;52.988;6.536;2023-07-09T11:38:40;10.93;;;7.10;;
52033;SDS011;38045;52.988;6.536;2023-07-09T11:44:20;11.43;;;6.38;;
52033;SDS011;38045;52.988;6.536;2023-07-09T11:49:50;12.20;;;7.25;;
52033;SDS011;38045;52.988;6.536;2023-07-09T11:52:24;11.60;;;7.53;;
52033;SDS011;38045;52.988;6.536;2023-07-09T11:58:04;8.95;;;6.90;;
52033;SDS011;38045;52.988;6.536;2023-07-09T12:03:23;11.27;;;6.20;;
52033;SDS011;38045;52.988;6.536;2023-07-09T12:06:00;9.80;;;6.35;;
52033;SDS011;38045;52.988;6.536;2023-07-09T12:08:40;8.32;;;6.65;;
52033;SDS011;38045;52.988;6.536;2023-07-09T12:11:24;12.07;;;7.47;;
52033;SDS011;38045;52.988;6.536;2023-07-09T12:14:12;8.73;;;6.60;;
52033;SDS011;38045;52.988;6.536;2023-07-09T12:16:50;9.85;;;7.40;;
52033;SDS011;38045;52.988;6.536;2023-07-09T12:19:19;7.40;;;5.60;;
52033;SDS011;38045;52.988;6.536;2023-07-09T12:21:55;7.35;;;6.28;;
52033;SDS011;38045;52.988;6.536;2023-07-09T12:29:30;7.55;;;5.72;;
52033;SDS011;38045;52.988;6.536;2023-07-09T12:32:16;7.22;;;5.75;;
52033;SDS011;38045;52.988;6.536;2023-07-09T12:34:49;8.38;;;6.05;;
52033;SDS011;38045;52.988;6.536;2023-07-09T12:37:22;6.40;;;5.72;;
52033;SDS011;38045;52.988;6.536;2023-07-09T12:39:54;9.10;;;6.70;;
52033;SDS011;38045;52.988;6.536;2023-07-09T12:42:24;6.72;;;6.00;;
52033;SDS011;38045;52.988;6.536;2023-07-09T12:45:15;8.75;;;5.90;;
52033;SDS011;38045;52.988;6.536;2023-07-09T12:47:44;7.68;;;5.32;;
52033;SDS011;38045;52.988;6.536;2023-07-09T12:50:17;7.63;;;4.60;;
52033;SDS011;38045;52.988;6.536;2023-07-09T12:52:52;7.00;;;5.73;;
52033;SDS011;38045;52.988;6.536;2023-07-09T12:55:25;7.70;;;5.40;;
52033;SDS011;38045;52.988;6.536;2023-07-09T12:57:58;6.40;;;5.82;;
52033;SDS011;38045;52.988;6.536;2023-07-09T13:00:33;5.70;;;5.20;;
52033;SDS011;38045;52.988;6.536;2023-07-09T13:03:00;8.57;;;5.72;;
52033;SDS011;38045;52.988;6.536;2023-07-09T13:05:28;8.87;;;5.10;;
52033;SDS011;38045;52.988;6.536;2023-07-09T13:08:00;5.35;;;4.85;;
52033;SDS011;38045;52.988;6.536;2023-07-09T13:10:42;6.40;;;4.82;;
52033;SDS011;38045;52.988;6.536;2023-07-09T13:13:12;8.65;;;5.07;;
52033;SDS011;38045;52.988;6.536;2023-07-09T13:15:40;7.72;;;5.50;;
52033;SDS011;38045;52.988;6.536;2023-07-09T13:18:12;7.55;;;5.07;;
52033;SDS011;38045;52.988;6.536;2023-07-09T13:20:40;5.63;;;4.80;;
52033;SDS011;38045;52.988;6.536;2023-07-09T13:23:11;6.32;;;4.22;;
52033;SDS011;38045;52.988;6.536;2023-07-09T13:25:43;8.20;;;4.82;;
52033;SDS011;38045;52.988;6.536;2023-07-09T13:28:31;7.20;;;5.82;;
52033;SDS011;38045;52.988;6.536;2023-07-09T13:31:04;5.40;;;4.90;;
52033;SDS011;38045;52.988;6.536;2023-07-09T13:33:34;11.00;;;6.60;;
52033;SDS011;38045;52.988;6.536;2023-07-09T13:36:02;10.68;;;5.75;;
52033;SDS011;38045;52.988;6.536;2023-07-09T13:38:31;10.60;;;5.47;;
52033;SDS011;38045;52.988;6.536;2023-07-09T13:41:09;12.63;;;6.35;;
52033;SDS011;38045;52.988;6.536;2023-07-09T13:43:41;6.25;;;4.63;;
52033;SDS011;38045;52.988;6.536;2023-07-09T13:46:11;10.35;;;5.35;;
52033;SDS011;38045;52.988;6.536;2023-07-09T13:48:40;7.43;;;5.47;;
52033;SDS011;38045;52.988;6.536;2023-07-09T13:51:13;9.38;;;5.28;;
52033;SDS011;38045;52.988;6.536;2023-07-09T13:53:51;6.38;;;5.53;;
52033;SDS011;38045;52.988;6.536;2023-07-09T13:56:27;6.88;;;5.53;;
52033;SDS011;38045;52.988;6.536;2023-07-09T13:58:54;6.38;;;5.80;;
52033;SDS011;38045;52.988;6.536;2023-07-09T14:01:23;11.55;;;6.30;;
52033;SDS011;38045;52.988;6.536;2023-07-09T14:03:51;7.93;;;7.13;;
52033;SDS011;38045;52.988;6.536;2023-07-09T14:06:24;6.22;;;5.63;;
52033;SDS011;38045;52.988;6.536;2023-07-09T14:08:51;8.07;;;6.20;;
52033;SDS011;38045;52.988;6.536;2023-07-09T14:11:24;16.00;;;5.95;;
52033;SDS011;38045;52.988;6.536;2023-07-09T14:13:52;7.18;;;5.72;;
52033;SDS011;38045;52.988;6.536;2023-07-09T14:16:19;8.10;;;5.80;;
52033;SDS011;38045;52.988;6.536;2023-07-09T14:19:00;11.50;;;6.50;;
52033;SDS011;38045;52.988;6.536;2023-07-09T14:21:30;7.63;;;5.72;;
52033;SDS011;38045;52.988;6.536;2023-07-09T14:23:57;9.60;;;5.90;;
52033;SDS011;38045;52.988;6.536;2023-07-09T14:26:29;6.05;;;5.45;;
52033;SDS011;38045;52.988;6.536;2023-07-09T14:28:58;6.05;;;5.28;;
52033;SDS011;38045;52.988;6.536;2023-07-09T14:31:30;7.93;;;5.60;;
52033;SDS011;38045;52.988;6.536;2023-07-09T14:34:15;6.82;;;6.18;;
52033;SDS011;38045;52.988;6.536;2023-07-09T14:36:52;7.72;;;4.43;;
52033;SDS011;38045;52.988;6.536;2023-07-09T14:39:20;8.23;;;6.43;;
52033;SDS011;38045;52.988;6.536;2023-07-09T14:41:55;13.35;;;6.43;;
52033;SDS011;38045;52.988;6.536;2023-07-09T14:44:29;5.78;;;5.28;;
52033;SDS011;38045;52.988;6.536;2023-07-09T14:46:58;5.43;;;4.85;;
52033;SDS011;38045;52.988;6.536;2023-07-09T14:49:29;9.77;;;6.85;;
52033;SDS011;38045;52.988;6.536;2023-07-09T14:51:59;7.13;;;6.43;;
52033;SDS011;38045;52.988;6.536;2023-07-09T14:54:29;8.60;;;5.72;;
52033;SDS011;38045;52.988;6.536;2023-07-09T14:56:59;5.72;;;5.07;;
52033;SDS011;38045;52.988;6.536;2023-07-09T14:59:32;6.72;;;6.13;;
52033;SDS011;38045;52.988;6.536;2023-07-09T15:01:59;6.57;;;5.05;;
52033;SDS011;38045;52.988;6.536;2023-07-09T15:04:30;5.80;;;5.22;;
52033;SDS011;38045;52.988;6.536;2023-07-09T15:07:08;9.30;;;5.97;;
52033;SDS011;38045;52.988;6.536;2023-07-09T15:09:41;9.85;;;6.00;;
52033;SDS011;38045;52.988;6.536;2023-07-09T15:14:45;8.90;;;4.88;;
52033;SDS011;38045;52.988;6.536;2023-07-09T15:17:14;33.38;;;10.75;;
52033;SDS011;38045;52.988;6.536;2023-07-09T15:19:44;25.98;;;8.07;;
52033;SDS011;38045;52.988;6.536;2023-07-09T15:22:26;16.27;;;6.18;;
52033;SDS011;38045;52.988;6.536;2023-07-09T15:25:02;17.55;;;4.65;;
52033;SDS011;38045;52.988;6.536;2023-07-09T15:27:32;13.52;;;5.22;;
52033;SDS011;38045;52.988;6.536;2023-07-09T15:30:04;9.18;;;5.75;;
52033;SDS011;38045;52.988;6.536;2023-07-09T15:33:17;21.83;;;8.20;;
52033;SDS011;38045;52.988;6.536;2023-07-09T15:35:48;11.38;;;6.55;;
52033;SDS011;38045;52.988;6.536;2023-07-09T15:38:20;7.50;;;5.68;;
52033;SDS011;38045;52.988;6.536;2023-07-09T15:41:10;12.10;;;6.05;;
52033;SDS011;38045;52.988;6.536;2023-07-09T15:43:44;14.05;;;7.25;;
52033;SDS011;38045;52.988;6.536;2023-07-09T15:46:27;7.38;;;5.53;;
52033;SDS011;38045;52.988;6.536;2023-07-09T15:49:00;8.23;;;5.90;;
52033;SDS011;38045;52.988;6.536;2023-07-09T15:51:42;8.93;;;6.00;;
52033;SDS011;38045;52.988;6.536;2023-07-09T15:54:24;6.25;;;4.82;;
52033;SDS011;38045;52.988;6.536;2023-07-09T15:56:54;9.35;;;5.38;;
52033;SDS011;38045;52.988;6.536;2023-07-09T15:59:28;5.30;;;4.57;;
52033;SDS011;38045;52.988;6.536;2023-07-09T16:01:59;7.25;;;5.53;;